Sonic Adventure (DX): Boss Rankings

Records: Times | Rings | Scores | Races | Bosses | Freestyle
Leaders: Times | Rings | Scores | Races | Bosses | Freestyle | Overall
Rank Player Percent Points Date
1 Sonicspeedruner 98.5% 29 06-27-15
2 Gamepro011 97.2% 57 06-27-15
3 Austinf 93.2% 138 06-27-15
4 DarkPolarNight 92.2% 158 06-27-15
5 Jawzun 90.3% 198 06-27-15
6 Parax 88.6% 232 06-27-15
7 ike6252 88.0% 244 06-27-15
8 Dashjump 86.2% 282 06-27-15
9 Avento128bits 85.4% 297 06-27-15
10 DarkspinesSonic 82.4% 359 06-27-15
11 Coolfansonic 80.9% 390 06-27-15
12 THC98 79.3% 422 06-27-15
13 F-Man 77.9% 452 06-27-15
14 TheRealShadnic 77.4% 461 06-27-15
15 Marth 77.0% 470 06-27-15
16 yoshifan 75.3% 505 06-27-15
17 PfoSonic 73.6% 539 06-27-15
18 InferSaime 73.3% 545 06-27-15
19 drminus 73.1% 549 06-27-15
20 HyperSonic7701 71.8% 577 06-27-15
21 RPGnutter 70.8% 598 06-27-15
22 Paragod 69.2% 629 06-27-15
23 mike89 68.7% 640 06-27-15
24 frankoredstrato 68.7% 641 06-27-15
25 Groudon199 64.3% 730 06-27-15
26 sonicam 64.1% 734 06-27-15
27 SadisticMystic 63.3% 750 06-27-15
28 Stefan 62.3% 771 06-27-15
29 Diamond 61.0% 798 06-27-15
30 Mariobutch 59.2% 835 06-27-15
31 Combo 58.5% 849 06-27-15
32 bertin 58.2% 855 06-27-15
33 xXMegaManXx 56.3% 894 06-27-15
34 SkyLights 55.5% 911 06-27-15
35 Dawid8404 51.8% 986 06-27-15
36 francisco 49.9% 1025 06-27-15
37 Fr3nZy 49.9% 1026 06-27-15
38 OmegaDJ 47.5% 1075 06-27-15
39 Omega Rafael Santos 46.3% 1098 06-27-15
40 Arch 46.1% 1102 06-27-15
41 P1 Pause 44.9% 1128 06-27-15
42 Andrea Ritsu 42.4% 1179 06-27-15
43 magnum12 42.3% 1180 06-27-15
44 Auriman1 38.4% 1260 06-27-15
45 James_Bertolli 36.0% 1309 06-27-15
46 teamblackarms 34.3% 1345 06-27-15
47 FuzZerd 33.8% 1355 06-27-15
48 Hunters13 33.7% 1357 06-27-15
49 Psymar 32.5% 1381 06-27-15
50 Quartz 32.5% 1382 06-27-15
51 eggFL 31.8% 1396 06-27-15
52 Cyan Ryan 31.5% 1401 06-27-15
53 GerbilSoft 30.7% 1419 06-27-15
54 elecmouse101 30.3% 1426 06-27-15
55 Thorn 30.2% 1428 06-27-15
56 Webber3000 30.0% 1433 06-27-15
57 videogamemaster777 29.6% 1440 06-27-15
58 Mo Player Banned 29.0% 1454 06-27-15
59 Turbos 28.1% 1472 06-27-15
60 Termon 27.4% 1485 06-27-15
61 Dave Cramer 26.1% 1512 06-27-15
62 Flying Fox 25.8% 1518 06-27-15
63 buddychaos0415 25.3% 1528 06-27-15
64 nuckrieg 25.0% 1534 06-27-15
65 Jerzia 24.8% 1539 06-27-15
66 Shadow Jacky 23.6% 1563 06-27-15
67 Cream147 21.6% 1604 06-27-15
68 supersonicfan 21.0% 1616 06-27-15
69 MiStEr_ShAoLiN 20.8% 1620 06-27-15
70 itsPersonnal 20.8% 1622 06-27-15
70 NintenDan 20.8% 1622 06-27-15
72 The T 20.5% 1628 06-27-15
73 Nimrod 20.4% 1629 06-27-15
74 Cybrax 20.3% 1632 06-27-15
75 supersonic465 20.0% 1638 06-27-15
76 SonicWinDX 19.6% 1646 06-27-15
77 Aitamen 19.5% 1647 06-27-15
78 Cruizer 18.9% 1660 06-27-15
79 VMU Player Banned 18.0% 1678 06-27-15
80 Game_Complete 17.5% 1689 06-27-15
81 The Great Lord Mick 16.6% 1708 06-27-15
82 Questionguy555 16.1% 1717 06-27-15
83 Drakodan 15.9% 1721 06-27-15
84 GreatStar 15.8% 1724 06-27-15
85 Spinballwizard 15.1% 1738 06-27-15
86 Sondow 14.4% 1753 06-27-15
87 sonicandamy 14.3% 1754 06-27-15
88 GarnetPrincess 13.2% 1777 06-27-15
89 SonicAD 12.2% 1798 06-27-15
90 Don 11.3% 1815 06-27-15
91 Miles9999 11.2% 1818 06-27-15
92 Siavash Tazari 10.7% 1828 06-27-15
93 BigAL49 10.3% 1836 06-27-15
94 Psyknux 10.1% 1840 06-27-15
95 Werey 10.1% 1841 06-27-15
96 Cutiefox 9.9% 1845 06-27-15
97 joecoolgames 9.7% 1848 06-27-15
98 knuckles_sonic8 9.6% 1850 06-27-15
99 mauserman 9.3% 1856 06-27-15
100 EngiNerd 8.8% 1867 06-27-15
101 Sonic Singularity 8.6% 1870 06-27-15
102 dShadow 8.4% 1875 06-27-15
103 Hipertails12 8.3% 1876 06-27-15
104 Shanekilz 8.0% 1884 06-27-15
105 Therio 7.6% 1891 06-27-15
106 Mastakirby 7.5% 1894 06-27-15
107 chainchumper 7.1% 1902 06-27-15
108 sonic29887 6.9% 1906 06-27-15
109 TheChaosEmeraIds 6.8% 1907 06-27-15
110 FocusSight64 6.8% 1908 06-27-15
111 Chao_Fan 6.6% 1912 06-27-15
112 HHNNBBHHN 6.1% 1923 06-27-15
113 tal39h 6.0% 1924 06-27-15
114 djmat 5.9% 1926 06-27-15
115 paulie9990 5.8% 1929 06-27-15
116 Sogeking 5.5% 1934 06-27-15
117 Brian_pso 5.0% 1944 06-27-15
118 Chawkk 5.0% 1945 06-27-15
119 SilvertheAlmighty 4.6% 1952 06-27-15
120 MK 4.5% 1954 06-27-15
120 SpinDashMaster 4.5% 1954 06-27-15
122 MastaToken 4.3% 1959 06-27-15
123 SpiritDragon1995 3.9% 1968 06-27-15
124 Sonique Hedgehog 3.8% 1970 06-27-15
125 KinkyCadence 3.6% 1973 06-27-15
126 Mad Andy 3.5% 1975 06-27-15
127 PsyBorg 3.4% 1978 06-27-15
128 FSSRandomvids 3.2% 1981 06-27-15
129 Rolken 2.9% 1988 06-27-15
129 Xia 2.9% 1988 06-27-15
131 andres430 2.5% 1995 06-27-15
132 crazy1993 2.2% 2001 06-27-15
133 dabestgamer 2.2% 2002 06-27-15
133 shadowblast63 Player Banned 2.2% 2002 06-27-15
135 Illidan 2.0% 2005 06-27-15
136 Richied 2.0% 2006 06-27-15
137 DanielTheFalcon 1.8% 2010 06-27-15
137 gamer1245 1.8% 2010 06-27-15
139 Iwannabelink 1.8% 2011 06-27-15
140 oTaiIilLsS 1.4% 2019 06-27-15
141 soniccoloursunleashed 1.3% 2021 06-27-15
142 niscool 1.2% 2022 06-27-15
143 ieatatsonic 1.1% 2025 06-27-15
144 Redd 1.0% 2026 06-27-15
145 Lil_Dude 0.7% 2032 06-27-15
145 LinksDarkArrows 0.7% 2032 06-27-15
147 Cbwade15 0.4% 2038 06-27-15
148 neaolas 0.3% 2041 06-27-15
149 BlankTH 0.2% 2043 06-27-15
150 Heroes_Hater 0.1% 2044 06-27-15
151 S-MS32X-S 0.0% 2046 06-27-15
152 KaM Mark MaK 0.0% 2048 06-27-15
152 MegabombBlade 0.0% 2048 06-27-15

This page is using the New Data Table System. [FUTURE]

Game ID: 3 | Category ID: 6
Hits: 3,968 | Hits This Month: 34 | DB Calls: 24 | Mem Usage: 5.34 MB | Time: 0.10s | Printable

The Sonic Center v3.9
Copyright 2003-2011 by The Sonic Center Team.